»·PEaware :: N594WA KBUR-KLAS

N594WA :: KBUR-KLAS

FLIGHT INFORMATION

Flight Status: Arrived
Operator: Privately registered:
United States
More flights under this callsign
Pilot: Aaron T. (8357)
Aircraft: PILATUS PC-12 EAGLE
(PC12)
More flights by this aircraft type
Origin: KBUR Bob Hope-Burbank
United States
Destination: KLAS McCarran Intl
United States
More flights between these airports :: More routes between these airports
Route: VNY3 DAG CRESO4
File this flight plan on PilotEdge
Remarks: I-5
Altitude:
(Current/Filed)
17,000ft
Speed:
(Current/Filed)
250kts
Departed: 16-Mar-20 08:38 PM
Arrived: 16-Mar-20 09:37 PM
Distance/Time
Traveled:
193nm/0:58
Distance/Time
To Go:
Arrived

Flight Plot

Page will automatically refresh every two minutes.

Flight plan parsing failed; only flown route is shown


Map Options




Map Legend


Flown Route
Filed Route
Departure Airport
Arrival Airport
Navaid (VOR, NDB)
Fix

Horizontal Profiles

Position Reports

Time Latitude Longitude Heading Altitude Ground
Speed
16-Mar-20 20:21 34.196317 -118.355133 0 783ft 0kts
16-Mar-20 20:22 34.196317 -118.355133 90 783ft 0kts
16-Mar-20 20:23 34.196317 -118.355133 90 783ft 0kts
16-Mar-20 20:24 34.196317 -118.355130 89 783ft 0kts
16-Mar-20 20:25 34.196317 -118.355127 89 783ft 0kts
16-Mar-20 20:26 34.196185 -118.355172 248 783ft 0kts
16-Mar-20 20:26 34.196184 -118.355174 248 783ft 0kts
16-Mar-20 20:28 34.196183 -118.355177 248 783ft 0kts
16-Mar-20 20:29 34.196182 -118.355180 248 783ft 0kts
16-Mar-20 20:29 34.196181 -118.355182 248 783ft 0kts
16-Mar-20 20:30 34.196181 -118.355185 248 783ft 0kts
16-Mar-20 20:32 34.196179 -118.355188 248 783ft 0kts
16-Mar-20 20:32 34.197121 -118.355123 21 783ft 14kts
16-Mar-20 20:33 34.203430 -118.356586 346 783ft 30kts
16-Mar-20 20:34 34.209966 -118.358444 348 783ft 29kts
16-Mar-20 20:35 34.212263 -118.359624 259 783ft 0kts
16-Mar-20 20:36 34.212035 -118.360305 202 783ft 8kts
16-Mar-20 20:38 34.189453 -118.355046 194 1305ft 114kts
16-Mar-20 20:38 34.167615 -118.378576 222 1925ft 141kts
16-Mar-20 20:39 34.141477 -118.409837 224 3088ft 130kts
16-Mar-20 20:40 34.143848 -118.441042 352 4032ft 157kts
16-Mar-20 20:41 34.188178 -118.435423 1 4930ft 165kts
16-Mar-20 20:42 34.234329 -118.428335 1 5814ft 172kts
16-Mar-20 20:43 34.281629 -118.424183 338 6772ft 166kts
16-Mar-20 20:44 34.325794 -118.441183 336 7629ft 167kts
16-Mar-20 20:45 34.370928 -118.456290 344 8489ft 171kts
16-Mar-20 20:46 34.407351 -118.421310 55 9316ft 180kts
16-Mar-20 20:47 34.438103 -118.372860 56 10159ft 182kts
16-Mar-20 20:48 34.468947 -118.323771 58 11056ft 187kts
16-Mar-20 20:49 34.500423 -118.273607 59 12389ft 191kts
16-Mar-20 20:50 34.533541 -118.220697 59 13544ft 203kts
16-Mar-20 20:51 34.568854 -118.164224 58 14615ft 217kts
16-Mar-20 20:52 34.606404 -118.104023 57 15886ft 230kts
16-Mar-20 20:53 34.635221 -118.035467 101 16921ft 239kts
16-Mar-20 20:54 34.644170 -117.945241 92 16951ft 287kts
16-Mar-20 20:55 34.655014 -117.847573 92 16937ft 297kts
16-Mar-20 20:56 34.667753 -117.747360 80 16930ft 307kts
16-Mar-20 20:57 34.693683 -117.648307 80 16924ft 306kts
16-Mar-20 20:58 34.718990 -117.549502 80 16924ft 306kts
16-Mar-20 20:59 34.744180 -117.450685 80 16925ft 305kts
16-Mar-20 21:00 34.769201 -117.352213 80 16995ft 303kts
16-Mar-20 21:01 34.794110 -117.253673 80 16992ft 305kts
16-Mar-20 21:02 34.818997 -117.154919 80 16983ft 304kts
16-Mar-20 21:03 34.843680 -117.056600 81 16973ft 304kts
16-Mar-20 21:04 34.868375 -116.957831 80 16944ft 305kts
16-Mar-20 21:05 34.892930 -116.859279 81 16971ft 304kts
16-Mar-20 21:06 34.917451 -116.760487 81 16969ft 304kts
16-Mar-20 21:07 34.941872 -116.661673 81 17000ft 304kts
16-Mar-20 21:08 34.968476 -116.563806 66 17001ft 311kts
16-Mar-20 21:09 35.010220 -116.470759 66 17003ft 311kts
16-Mar-20 21:10 35.051379 -116.377959 66 17006ft 312kts
16-Mar-20 21:11 35.092681 -116.284647 67 17006ft 312kts
16-Mar-20 21:12 35.133722 -116.191591 67 17008ft 312kts
16-Mar-20 21:13 35.174714 -116.098387 67 16986ft 312kts
16-Mar-20 21:14 35.215444 -116.005559 67 16137ft 308kts
16-Mar-20 21:16 35.262184 -115.898713 66 15084ft 300kts
16-Mar-20 21:16 35.295371 -115.824555 67 14356ft 295kts
16-Mar-20 21:17 35.343075 -115.743934 50 13462ft 294kts
16-Mar-20 21:18 35.397803 -115.670888 50 12563ft 287kts
16-Mar-20 21:19 35.451470 -115.599134 50 11549ft 282kts
16-Mar-20 21:20 35.504123 -115.528642 51 10400ft 280kts
16-Mar-20 21:21 35.554908 -115.460586 51 10005ft 261kts
16-Mar-20 21:22 35.603335 -115.395504 52 10004ft 255kts
16-Mar-20 21:23 35.651130 -115.331098 52 10005ft 254kts
16-Mar-20 21:24 35.698556 -115.267180 52 10009ft 253kts
16-Mar-20 21:25 35.746444 -115.202493 52 10010ft 256kts
16-Mar-20 21:27 35.813059 -115.146849 4 10012ft 262kts
16-Mar-20 21:27 35.873821 -115.143116 1 10011ft 263kts
16-Mar-20 21:28 35.947405 -115.139784 1 9572ft 265kts
16-Mar-20 21:29 36.019804 -115.137332 1 8390ft 253kts
16-Mar-20 21:30 36.080762 -115.131487 20 7051ft 230kts
16-Mar-20 21:31 36.137046 -115.106011 22 5314ft 195kts
16-Mar-20 21:32 36.159249 -115.124941 200 4402ft 93kts
16-Mar-20 21:33 36.133060 -115.137225 200 3507ft 102kts
16-Mar-20 21:34 36.110337 -115.150043 203 2757ft 90kts
16-Mar-20 21:35 36.091045 -115.161173 205 2186ft 45kts
16-Mar-20 21:36 36.089474 -115.163664 292 2186ft 0kts
16-Mar-20 21:37 36.090561 -115.164374 269 2186ft 10kts
16-Mar-20 21:38 36.091796 -115.164911 57 2186ft 1kts
16-Mar-20 21:39 36.091805 -115.164893 57 2186ft 0kts
16-Mar-20 21:40 36.091805 -115.164893 57 2186ft 0kts

Navigation Log

Ident Type
Flight plan parsing failed, navigation log unavailable